VG17 weather

Defense Supply Center Richmond Heliport
Richmond, Virginia, United States

Public forecast

Using degrees Fahrenheit for public forecast. Weather courtesy of forecast.io.

METAR (pilot weather report)

Closest report is Chesterfield County Airport, 3.7 nm (6.8 km) WSW. Retrieved 2019/06/17 07:56 UTC (52 minutes ago):

KFCI 170756Z AUTO 00000KT 10SM CLR 23/19 A2994 RMK AO2 SLP148 T02280194

TAF (pilot weather forecast)

Closest forecast is Richmond International Airport, 7.9 nm (14.7 km) NE. Retrieved 2019/06/17 06:22 UTC (2 hours ago):

TAF KRIC 170520Z 1706/1806 22009KT P6SM FEW160 SCT300 FM171500 23007KT P6SM SCT050 FM171900 22008KT P6SM BKN050